createdAt,value
2018-01-21T00:02:11.833Z,48.60
2018-01-21T00:04:39.385Z,45.53
2018-01-21T00:07:06.949Z,52.70
2018-01-21T00:09:37.285Z,51.53
2018-01-21T00:12:04.844Z,49.87
2018-01-21T00:14:32.372Z,52.23
2018-01-21T00:16:59.967Z,47.77
2018-01-21T00:19:29.828Z,46.70
2018-01-21T00:21:57.422Z,37.37
2018-01-21T00:24:26.048Z,35.77
2018-01-21T00:26:53.652Z,20.03
2018-01-21T00:29:24.366Z,21.67
2018-01-21T00:31:52.603Z,19.03
2018-01-21T00:34:20.799Z,17.47
2018-01-21T00:36:48.416Z,14.03
2018-01-21T00:39:17.817Z,16.83
2018-01-21T00:41:45.375Z,15.20
2018-01-21T00:44:12.919Z,15.87
2018-01-21T00:46:40.521Z,13.80
2018-01-21T00:49:08.949Z,21.40
2018-01-21T00:51:36.509Z,13.70
2018-01-21T00:54:04.094Z,21.73
2018-01-21T00:56:31.795Z,18.67
2018-01-21T00:58:59.396Z,11.87
2018-01-21T01:01:26.970Z,12.43
2018-01-21T01:03:54.559Z,16.13
2018-01-21T01:06:22.232Z,17.57
2018-01-21T01:08:49.792Z,12.97
2018-01-21T01:11:17.378Z,14.40
2018-01-21T01:13:44.974Z,12.90
2018-01-21T01:16:12.552Z,14.43
2018-01-21T01:18:40.119Z,12.43
2018-01-21T01:21:07.683Z,14.17
2018-01-21T01:23:35.268Z,11.83
2018-01-21T01:26:02.945Z,15.07
2018-01-21T01:28:31.492Z,12.17
2018-01-21T01:30:59.091Z,14.10
2018-01-21T01:33:26.691Z,14.70
2018-01-21T01:35:54.289Z,15.77
2018-01-21T01:38:21.880Z,14.33
2018-01-21T01:40:49.475Z,14.90
2018-01-21T01:43:17.100Z,15.23
2018-01-21T01:45:45.414Z,13.23
2018-01-21T01:48:12.988Z,18.10
2018-01-21T01:50:40.586Z,15.67
2018-01-21T01:53:08.182Z,16.83
2018-01-21T01:55:35.776Z,13.87
2018-01-21T01:58:04.410Z,13.23
2018-01-21T02:00:33.496Z,17.37
2018-01-21T02:03:02.298Z,15.87
2018-01-21T02:05:31.309Z,14.97
2018-01-21T02:08:09.246Z,16.70
2018-01-21T02:10:36.815Z,14.03
2018-01-21T02:13:04.352Z,20.67
2018-01-21T02:15:31.922Z,18.00
2018-01-21T02:18:00.221Z,14.50
2018-01-21T02:20:27.821Z,20.23
2018-01-21T02:22:56.136Z,18.13
2018-01-21T02:25:23.677Z,16.80
2018-01-21T02:27:51.261Z,18.73
2018-01-21T02:30:18.812Z,17.63
2018-01-21T02:32:46.366Z,23.50
2018-01-21T02:35:13.976Z,19.23
2018-01-21T02:37:41.533Z,21.17
2018-01-21T02:40:09.094Z,22.63
2018-01-21T02:42:36.660Z,20.80
2018-01-21T02:45:04.223Z,22.53
2018-01-21T02:47:31.895Z,22.73
2018-01-21T02:49:59.580Z,26.30
2018-01-21T02:52:27.907Z,24.37
2018-01-21T02:54:55.499Z,27.63
2018-01-21T02:57:23.079Z,24.00
2018-01-21T02:59:50.663Z,24.77
2018-01-21T03:02:19.081Z,23.23
2018-01-21T03:04:46.655Z,26.40
2018-01-21T03:07:14.247Z,27.27
2018-01-21T03:09:41.865Z,25.00
2018-01-21T03:12:10.249Z,26.37
2018-01-21T03:14:37.812Z,28.53
2018-01-21T03:17:05.370Z,29.57
2018-01-21T03:19:32.930Z,28.57
2018-01-21T03:22:01.480Z,32.13
2018-01-21T03:24:29.808Z,32.60
2018-01-21T03:26:57.382Z,31.10
2018-01-21T03:29:25.000Z,29.73
2018-01-21T03:31:53.292Z,32.40
2018-01-21T03:34:20.863Z,32.03
2018-01-21T03:36:48.421Z,25.03
2018-01-21T03:39:16.941Z,31.77
2018-01-21T03:41:44.511Z,28.43
2018-01-21T03:44:12.063Z,25.50
2018-01-21T03:46:39.653Z,30.57
2018-01-21T03:49:09.971Z,29.37
2018-01-21T03:51:37.533Z,26.93
2018-01-21T03:54:05.209Z,27.43
2018-01-21T03:56:33.523Z,25.33
2018-01-21T03:59:01.108Z,32.00
2018-01-21T04:01:28.664Z,25.20
2018-01-21T04:03:56.990Z,25.17
2018-01-21T04:06:25.380Z,25.37
2018-01-21T04:08:53.878Z,28.83
2018-01-21T04:11:21.442Z,28.97
2018-01-21T04:13:49.071Z,38.13
2018-01-21T04:16:17.414Z,27.37
2018-01-21T04:18:45.934Z,28.70
2018-01-21T04:21:15.048Z,25.43
2018-01-21T04:23:43.371Z,23.20
2018-01-21T04:26:11.679Z,27.50
2018-01-21T04:28:39.261Z,26.40
2018-01-21T04:31:07.586Z,22.23
2018-01-21T04:33:35.165Z,27.43
2018-01-21T04:36:03.307Z,20.50
2018-01-21T04:38:31.133Z,22.07
2018-01-21T04:40:58.699Z,18.00
2018-01-21T04:43:26.264Z,19.00
2018-01-21T04:45:54.624Z,24.90
2018-01-21T04:48:23.176Z,21.47
2018-01-21T04:50:50.767Z,15.30
2018-01-21T04:53:18.316Z,20.57
2018-01-21T04:55:46.780Z,18.53
2018-01-21T04:58:16.370Z,16.27
2018-01-21T05:00:43.939Z,15.97
2018-01-21T05:03:11.488Z,16.87
2018-01-21T05:05:39.066Z,16.83
2018-01-21T05:08:07.860Z,16.87
2018-01-21T05:10:35.412Z,17.43
2018-01-21T05:13:02.993Z,14.40
2018-01-21T05:15:30.533Z,13.67
2018-01-21T05:17:58.095Z,16.83
2018-01-21T05:20:25.703Z,17.80
2018-01-21T05:22:54.741Z,16.60
2018-01-21T05:25:22.287Z,15.97
2018-01-21T05:27:50.636Z,16.23
2018-01-21T05:30:18.933Z,16.70
2018-01-21T05:32:46.474Z,11.43
2018-01-21T05:35:14.866Z,17.03
2018-01-21T05:37:46.234Z,16.97
2018-01-21T05:40:14.584Z,14.43
2018-01-21T05:42:42.158Z,15.50
2018-01-21T05:45:09.740Z,13.37
2018-01-21T05:47:38.126Z,21.50
2018-01-21T05:50:07.201Z,22.27
2018-01-21T05:52:34.752Z,19.30
2018-01-21T05:55:02.335Z,20.07
2018-01-21T05:57:29.903Z,16.63
2018-01-21T05:59:57.513Z,14.47
2018-01-21T06:02:25.081Z,15.93
2018-01-21T06:04:52.631Z,14.83
2018-01-21T06:07:20.219Z,15.57
2018-01-21T06:09:47.809Z,14.03
2018-01-21T06:12:15.363Z,10.60
2018-01-21T06:14:42.940Z,13.60
2018-01-21T06:17:12.446Z,14.43
2018-01-21T06:19:40.826Z,10.87
2018-01-21T06:22:08.398Z,12.60
2018-01-21T06:24:36.712Z,10.83
2018-01-21T06:27:05.670Z,11.80
2018-01-21T06:29:34.264Z,15.73
2018-01-21T06:32:02.583Z,9.03
2018-01-21T06:34:30.239Z,13.00
2018-01-21T06:36:57.829Z,9.13
2018-01-21T06:39:25.399Z,7.53
2018-01-21T06:41:52.955Z,11.20
2018-01-21T06:44:20.577Z,8.70
2018-01-21T06:46:48.178Z,17.20
2018-01-21T06:49:16.799Z,9.20
2018-01-21T06:51:45.160Z,10.50
2018-01-21T06:54:12.850Z,14.27
2018-01-21T06:56:40.422Z,14.53
2018-01-21T06:59:08.047Z,11.77
2018-01-21T07:01:36.199Z,12.87
2018-01-21T07:04:03.762Z,8.80
2018-01-21T07:06:31.352Z,12.50
2018-01-21T07:08:59.850Z,11.27
2018-01-21T07:11:28.182Z,11.97
2018-01-21T07:13:55.813Z,9.43
2018-01-21T07:16:23.440Z,14.43
2018-01-21T07:18:52.683Z,10.53
2018-01-21T07:21:20.274Z,11.07
2018-01-21T07:23:47.841Z,7.70
2018-01-21T07:26:15.463Z,14.07
2018-01-21T07:28:43.631Z,9.07
2018-01-21T07:31:11.695Z,12.67
2018-01-21T07:33:40.153Z,15.20
2018-01-21T07:36:07.721Z,9.37
2018-01-21T07:38:46.448Z,8.87
2018-01-21T07:41:14.827Z,12.83
2018-01-21T07:43:43.024Z,8.77
2018-01-21T07:46:12.097Z,8.97
2018-01-21T07:48:43.442Z,14.40
2018-01-21T07:51:11.009Z,13.40
2018-01-21T07:53:38.607Z,11.17
2018-01-21T07:56:06.192Z,10.03
2018-01-21T07:58:39.029Z,8.93
2018-01-21T08:01:07.372Z,11.03
2018-01-21T08:03:35.189Z,10.47
2018-01-21T08:06:05.992Z,9.00
2018-01-21T08:08:33.665Z,9.90
2018-01-21T08:11:01.225Z,11.50
2018-01-21T08:13:45.537Z,9.17
2018-01-21T08:16:19.003Z,9.40
2018-01-21T08:18:57.273Z,10.43
2018-01-21T08:21:33.545Z,7.70
2018-01-21T08:24:01.194Z,7.20
2018-01-21T08:26:37.660Z,11.80
2018-01-21T08:29:15.356Z,8.03
2018-01-21T08:31:52.465Z,9.90
2018-01-21T08:37:19.029Z,8.70
2018-01-21T08:42:48.703Z,10.87
2018-01-21T08:48:15.537Z,10.80
2018-01-21T08:53:47.204Z,11.77
2018-01-21T08:56:15.206Z,11.87
2018-01-21T09:01:38.511Z,11.77
2018-01-21T09:04:06.092Z,14.70
2018-01-21T09:07:03.914Z,15.20
2018-01-21T09:10:08.344Z,12.97
2018-01-21T09:12:41.896Z,12.37
2018-01-21T09:15:09.477Z,15.10
2018-01-21T09:17:38.105Z,11.43
2018-01-21T09:26:02.715Z,12.40
2018-01-21T09:28:53.905Z,12.37
2018-01-21T09:31:21.480Z,11.40
2018-01-21T09:33:49.727Z,11.80
2018-01-21T09:36:17.297Z,18.30
2018-01-21T09:38:50.890Z,12.50
2018-01-21T09:41:18.554Z,11.17
2018-01-21T09:43:46.130Z,14.20
2018-01-21T09:46:13.682Z,16.33
2018-01-21T09:51:36.166Z,14.63
2018-01-21T09:54:03.755Z,16.53
2018-01-21T09:56:32.198Z,21.23
2018-01-21T10:04:47.221Z,14.83
2018-01-21T10:07:40.264Z,17.40
2018-01-21T10:10:07.842Z,18.83
2018-01-21T10:15:28.239Z,10.30
2018-01-21T10:17:55.820Z,8.97
2018-01-21T10:20:23.408Z,15.40
2018-01-21T10:22:51.757Z,10.70
2018-01-21T10:25:24.374Z,7.30
2018-01-21T10:27:51.976Z,9.23
2018-01-21T10:30:45.116Z,7.70
2018-01-21T10:33:12.732Z,12.00
2018-01-21T10:35:40.295Z,8.17
2018-01-21T10:38:31.588Z,7.33
2018-01-21T10:41:33.621Z,5.63
2018-01-21T10:44:02.027Z,6.10
2018-01-21T10:46:33.521Z,8.53
2018-01-21T10:49:02.164Z,6.40
2018-01-21T10:54:23.053Z,7.93
2018-01-21T10:59:46.916Z,8.07
2018-01-21T11:05:39.013Z,8.60
2018-01-21T11:08:11.750Z,6.93
2018-01-21T11:10:40.243Z,10.63
2018-01-21T11:15:46.480Z,6.47
2018-01-21T11:21:39.733Z,10.93
2018-01-21T11:29:45.770Z,8.13
2018-01-21T11:32:14.121Z,13.10
2018-01-21T11:37:36.032Z,9.77
2018-01-21T11:42:58.976Z,7.50
2018-01-21T11:45:26.599Z,11.30
2018-01-21T11:47:55.916Z,10.57
2018-01-21T11:50:25.232Z,8.77
2018-01-21T11:52:53.322Z,10.50
2018-01-21T11:55:20.896Z,11.50
2018-01-21T12:00:41.646Z,9.20
2018-01-21T12:03:09.278Z,14.20
2018-01-21T12:05:50.698Z,13.03
2018-01-21T12:08:19.320Z,7.83
2018-01-21T12:10:46.909Z,10.40
2018-01-21T12:13:14.533Z,7.70
2018-01-21T12:15:42.253Z,9.97
2018-01-21T12:18:09.884Z,9.80
2018-01-21T12:20:37.429Z,7.03
2018-01-21T12:23:05.012Z,10.23
2018-01-21T12:25:32.554Z,10.40
2018-01-21T12:28:02.108Z,9.10
2018-01-21T12:30:29.702Z,9.97
2018-01-21T12:32:58.044Z,7.17
2018-01-21T12:35:25.672Z,9.90
2018-01-21T12:37:53.246Z,8.60
2018-01-21T12:40:20.814Z,10.33
2018-01-21T12:42:48.406Z,15.50
2018-01-21T12:45:16.004Z,9.47
2018-01-21T12:47:44.380Z,6.77
2018-01-21T12:50:12.930Z,6.07
2018-01-21T12:52:40.616Z,8.07
2018-01-21T12:55:08.443Z,6.97
2018-01-21T12:57:37.069Z,9.70
2018-01-21T13:00:06.139Z,12.47
2018-01-21T13:02:33.795Z,8.10
2018-01-21T13:05:01.466Z,9.73
2018-01-21T13:07:29.176Z,9.27
2018-01-21T13:09:57.567Z,9.83
2018-01-21T13:12:26.059Z,8.23
2018-01-21T13:14:54.361Z,4.80
2018-01-21T13:17:21.927Z,9.57
2018-01-21T13:19:49.560Z,6.13
2018-01-21T13:22:17.176Z,5.37
2018-01-21T13:24:46.101Z,5.93
2018-01-21T13:27:13.749Z,8.87
2018-01-21T13:29:43.226Z,7.87
2018-01-21T13:32:11.530Z,6.20
2018-01-21T13:34:39.152Z,7.57
2018-01-21T13:37:06.686Z,6.47
2018-01-21T13:39:35.269Z,8.00
2018-01-21T13:42:04.952Z,7.13
2018-01-21T13:44:33.221Z,7.70
2018-01-21T13:47:02.113Z,10.20
2018-01-21T13:49:29.681Z,8.93
2018-01-21T13:51:57.293Z,4.90
2018-01-21T13:54:24.967Z,6.07
2018-01-21T13:56:52.547Z,11.53
2018-01-21T13:59:20.863Z,8.80
2018-01-21T14:01:49.309Z,9.67
2018-01-21T14:04:16.905Z,8.00
2018-01-21T14:06:44.557Z,7.27
2018-01-21T14:09:12.153Z,6.10
2018-01-21T14:11:39.710Z,8.63
2018-01-21T14:14:08.064Z,12.37
2018-01-21T14:16:35.678Z,9.93
2018-01-21T14:19:03.254Z,7.67
2018-01-21T14:21:30.832Z,8.13
2018-01-21T14:23:58.570Z,8.50
2018-01-21T14:26:26.216Z,8.80
2018-01-21T14:28:58.436Z,5.63
2018-01-21T14:31:26.043Z,7.67
2018-01-21T14:33:54.543Z,6.27
2018-01-21T14:36:22.206Z,4.97
2018-01-21T14:38:50.649Z,7.57
2018-01-21T14:41:18.212Z,7.30
2018-01-21T14:43:45.821Z,9.80
2018-01-21T14:46:13.433Z,9.50
2018-01-21T14:48:48.300Z,10.77
2018-01-21T14:51:15.923Z,10.30
2018-01-21T14:53:43.592Z,12.03
2018-01-21T14:56:11.281Z,15.80
2018-01-21T14:58:38.948Z,8.47
2018-01-21T15:01:07.306Z,13.90
2018-01-21T15:03:35.762Z,13.57
2018-01-21T15:06:03.406Z,14.37
2018-01-21T15:08:31.038Z,12.40
2018-01-21T15:10:58.701Z,15.30
2018-01-21T15:13:27.185Z,12.33
2018-01-21T15:15:54.787Z,9.30
2018-01-21T15:18:23.161Z,7.77
2018-01-21T15:20:50.742Z,9.60
2018-01-21T15:23:18.335Z,9.10
2018-01-21T15:25:45.964Z,8.03
2018-01-21T15:28:13.549Z,9.83
2018-01-21T15:30:41.167Z,7.80
2018-01-21T15:33:09.783Z,10.63
2018-01-21T15:35:39.120Z,11.53
2018-01-21T15:38:07.452Z,9.23
2018-01-21T15:40:35.898Z,10.40
2018-01-21T15:43:04.232Z,11.17
2018-01-21T15:45:32.740Z,11.60
2018-01-21T15:48:17.826Z,14.53
2018-01-21T15:50:45.438Z,11.20
2018-01-21T15:53:13.012Z,12.27
2018-01-21T15:55:40.637Z,15.53
2018-01-21T15:58:08.248Z,11.23
2018-01-21T16:00:35.842Z,15.47
2018-01-21T16:03:04.352Z,20.47
2018-01-21T16:05:31.969Z,14.03
2018-01-21T16:08:12.433Z,12.57
2018-01-21T16:10:40.103Z,14.07
2018-01-21T16:13:07.755Z,12.30
2018-01-21T16:15:36.271Z,12.47
2018-01-21T16:18:07.432Z,14.70
2018-01-21T16:20:35.125Z,11.10
2018-01-21T16:23:03.890Z,12.50
2018-01-21T16:25:31.480Z,12.13
2018-01-21T16:27:59.053Z,13.27
2018-01-21T16:30:26.694Z,10.97
2018-01-21T16:32:56.068Z,10.77
2018-01-21T16:35:23.636Z,13.10
2018-01-21T16:38:03.325Z,13.33
2018-01-21T16:40:30.906Z,16.07
2018-01-21T16:42:59.308Z,15.57
2018-01-21T16:45:26.940Z,14.93
2018-01-21T16:47:56.587Z,14.77
2018-01-21T16:50:26.279Z,12.47
2018-01-21T16:52:54.820Z,14.43
2018-01-21T16:55:23.043Z,15.80
2018-01-21T16:57:53.329Z,21.20
2018-01-21T17:00:20.947Z,12.77
2018-01-21T17:02:48.573Z,12.20
2018-01-21T17:05:19.990Z,15.10
2018-01-21T17:07:53.370Z,20.70
2018-01-21T17:10:20.994Z,16.53
2018-01-21T17:12:48.718Z,13.10
2018-01-21T17:15:16.996Z,15.63
2018-01-21T17:17:45.630Z,14.10
2018-01-21T17:20:13.224Z,15.67
2018-01-21T17:22:40.881Z,17.50
2018-01-21T17:25:08.468Z,15.33
2018-01-21T17:27:40.022Z,15.07
2018-01-21T17:30:08.608Z,18.50
2018-01-21T17:32:36.221Z,16.93
2018-01-21T17:35:03.834Z,16.07
2018-01-21T17:37:34.817Z,19.90
2018-01-21T17:40:03.409Z,17.73
2018-01-21T17:42:31.828Z,20.70
2018-01-21T17:44:59.557Z,20.47
2018-01-21T17:47:28.023Z,20.43
2018-01-21T17:49:55.636Z,19.33
2018-01-21T17:52:23.379Z,24.73
2018-01-21T17:54:51.768Z,15.93
2018-01-21T17:57:19.416Z,22.20
2018-01-21T17:59:47.100Z,21.60
2018-01-21T18:02:14.775Z,19.90
2018-01-21T18:04:42.427Z,21.57
2018-01-21T18:07:10.068Z,21.10
2018-01-21T18:09:43.359Z,23.00
2018-01-21T18:12:11.035Z,23.37
2018-01-21T18:14:42.271Z,24.43
2018-01-21T18:17:10.715Z,22.97
2018-01-21T18:19:41.907Z,23.77
2018-01-21T18:22:09.534Z,23.27
2018-01-21T18:24:37.171Z,26.30
2018-01-21T18:27:04.935Z,25.33
2018-01-21T18:29:35.073Z,28.10
2018-01-21T18:32:02.731Z,26.13
2018-01-21T18:34:30.381Z,26.33
2018-01-21T18:36:57.950Z,25.30
2018-01-21T18:39:33.092Z,26.47
2018-01-21T18:42:00.692Z,33.17
2018-01-21T18:44:28.385Z,28.73
2018-01-21T18:46:56.063Z,27.03
2018-01-21T18:49:26.063Z,28.90
2018-01-21T18:51:53.687Z,28.37
2018-01-21T18:54:21.325Z,31.60
2018-01-21T18:56:48.911Z,28.97
2018-01-21T18:59:16.505Z,32.77
2018-01-21T19:01:44.079Z,30.63
2018-01-21T19:04:12.427Z,36.43
2018-01-21T19:06:40.697Z,32.40
2018-01-21T19:09:08.369Z,38.20
2018-01-21T19:11:37.052Z,40.43
2018-01-21T19:14:04.696Z,38.23
2018-01-21T19:16:32.344Z,38.90
2018-01-21T19:18:59.994Z,32.00
2018-01-21T19:21:28.316Z,40.00
2018-01-21T19:23:55.920Z,40.87
2018-01-21T19:26:24.322Z,35.23
2018-01-21T19:28:52.669Z,35.53
2018-01-21T19:31:20.303Z,39.83
2018-01-21T19:33:48.577Z,35.10
2018-01-21T19:36:16.167Z,33.93
2018-01-21T19:39:01.555Z,36.20
2018-01-21T19:41:32.579Z,32.73
2018-01-21T19:44:08.736Z,32.43
2018-01-21T19:46:36.411Z,33.90
2018-01-21T19:49:05.012Z,33.03
2018-01-21T19:51:32.626Z,32.97
2018-01-21T19:54:00.201Z,31.93
2018-01-21T19:56:29.617Z,30.17
2018-01-21T19:58:57.244Z,31.43
2018-01-21T20:01:24.834Z,32.70
2018-01-21T20:03:52.474Z,30.07
2018-01-21T20:06:21.192Z,29.53
2018-01-21T20:08:49.590Z,29.70
2018-01-21T20:11:18.143Z,27.53
2018-01-21T20:13:45.819Z,28.70
2018-01-21T20:16:32.616Z,29.20
2018-01-21T20:19:00.351Z,25.30
2018-01-21T20:21:28.702Z,33.40
2018-01-21T20:23:56.302Z,28.30
2018-01-21T20:26:23.927Z,28.27
2018-01-21T20:28:51.507Z,24.93
2018-01-21T20:31:19.852Z,27.17
2018-01-21T20:33:47.529Z,28.13
2018-01-21T20:36:15.169Z,28.67
2018-01-21T20:38:42.810Z,23.20
2018-01-21T20:41:10.422Z,21.73
2018-01-21T20:43:37.984Z,24.00
2018-01-21T20:46:05.645Z,25.23
2018-01-21T20:48:33.214Z,24.20
2018-01-21T20:51:06.496Z,28.93
2018-01-21T20:53:54.731Z,24.17
2018-01-21T20:56:22.314Z,22.33
2018-01-21T20:58:49.900Z,21.67
2018-01-21T21:01:17.514Z,22.93
2018-01-21T21:03:45.101Z,23.50
2018-01-21T21:06:13.113Z,21.63
2018-01-21T21:08:41.458Z,22.77
2018-01-21T21:11:09.095Z,19.33
2018-01-21T21:13:37.205Z,29.10
2018-01-21T21:16:05.693Z,34.10
2018-01-21T21:18:46.744Z,21.83
2018-01-21T21:21:15.715Z,18.17
2018-01-21T21:23:43.358Z,19.00
2018-01-21T21:26:10.940Z,23.00
2018-01-21T21:28:45.742Z,21.60
2018-01-21T21:31:15.282Z,17.57
2018-01-21T21:33:43.338Z,18.03
2018-01-21T21:36:11.224Z,19.23
2018-01-21T21:38:41.816Z,19.70
2018-01-21T21:41:09.455Z,18.63
2018-01-21T21:43:43.208Z,21.63
2018-01-21T21:46:13.775Z,22.93
2018-01-21T21:48:45.015Z,20.73
2018-01-21T21:51:12.621Z,20.33
2018-01-21T21:53:40.263Z,20.07
2018-01-21T21:56:08.641Z,19.47
2018-01-21T21:58:37.151Z,19.80
2018-01-21T22:01:04.853Z,20.80
2018-01-21T22:03:33.069Z,16.80
2018-01-21T22:06:00.652Z,19.20
2018-01-21T22:08:35.979Z,19.43
2018-01-21T22:11:03.592Z,20.70
2018-01-21T22:13:31.193Z,18.83
2018-01-21T22:15:58.824Z,18.03
2018-01-21T22:18:32.364Z,18.33
2018-01-21T22:21:00.544Z,19.70
2018-01-21T22:23:28.153Z,18.50
2018-01-21T22:25:55.745Z,17.03
2018-01-21T22:28:27.700Z,20.53
2018-01-21T22:30:55.389Z,17.73
2018-01-21T22:33:23.066Z,18.20
2018-01-21T22:35:50.646Z,18.20
2018-01-21T22:38:21.924Z,18.27
2018-01-21T22:40:49.516Z,19.23
2018-01-21T22:43:17.203Z,20.23
2018-01-21T22:45:44.850Z,17.37
2018-01-21T22:48:16.857Z,17.27
2018-01-21T22:50:45.755Z,20.13
2018-01-21T22:53:13.718Z,22.63
2018-01-21T22:55:42.606Z,19.57
2018-01-21T22:58:14.316Z,17.40
2018-01-21T23:00:42.166Z,19.77
2018-01-21T23:03:09.810Z,22.57
2018-01-21T23:05:37.625Z,18.50
2018-01-21T23:08:26.754Z,22.03
2018-01-21T23:10:54.858Z,21.00
2018-01-21T23:13:22.476Z,24.00
2018-01-21T23:15:50.125Z,22.17
2018-01-21T23:18:19.824Z,20.60
2018-01-21T23:20:57.199Z,23.93
2018-01-21T23:23:25.029Z,21.87
2018-01-21T23:25:52.743Z,23.23
2018-01-21T23:28:24.467Z,22.40
2018-01-21T23:30:52.055Z,22.27
2018-01-21T23:33:20.696Z,21.50
2018-01-21T23:35:51.437Z,26.73
2018-01-21T23:38:22.127Z,26.27
2018-01-21T23:40:51.418Z,23.07
2018-01-21T23:43:19.373Z,26.10
2018-01-21T23:45:48.379Z,23.70
2018-01-21T23:48:16.320Z,25.53
2018-01-21T23:50:46.080Z,24.43
2018-01-21T23:53:16.046Z,28.07
2018-01-21T23:55:44.760Z,25.67
2018-01-21T23:58:15.318Z,25.93
